createdAt,value
2022-09-26T00:04:46.237Z,-65.1
2022-09-26T00:09:54.621Z,-64.5
2022-09-26T00:15:01.677Z,-64.5
2022-09-26T00:20:09.679Z,-64.5
2022-09-26T00:25:32.566Z,-64.5
2022-09-26T00:41:28.453Z,-64.1
2022-09-26T00:41:28.457Z,-64.1
2022-09-26T00:41:28.457Z,-64.2
2022-09-26T00:41:28.458Z,-64.3
2022-09-26T00:41:28.458Z,-64.2
2022-09-26T00:41:28.458Z,-64.3
2022-09-26T00:41:28.480Z,-64.3
2022-09-26T00:41:28.480Z,-64.3
2022-09-26T00:41:28.507Z,-64.2
2022-09-26T00:41:28.524Z,-64.5
2022-09-26T00:41:28.524Z,-64.5
2022-09-26T00:41:28.524Z,-64.5
2022-09-26T00:41:28.524Z,-64.2
2022-09-26T00:41:28.524Z,-64.5
2022-09-26T00:41:28.975Z,-64.4
2022-09-26T00:46:35.162Z,-64.8
2022-09-26T00:51:43.230Z,-64.6
2022-09-26T00:56:50.151Z,-64.9
2022-09-26T01:01:57.617Z,-65.1
2022-09-26T01:07:05.104Z,-65.5
2022-09-26T01:12:12.786Z,-65.3
2022-09-26T01:17:20.293Z,-65.2
2022-09-26T01:22:27.449Z,-65.2
2022-09-26T01:27:34.608Z,-65.2
2022-09-26T01:32:42.387Z,-65.6
2022-09-26T01:37:49.017Z,-65.6
2022-09-26T01:42:56.505Z,-65.8
2022-09-26T01:48:04.076Z,-66.1
2022-09-26T01:53:11.274Z,-65.2
2022-09-26T01:58:19.161Z,-65.0
2022-09-26T02:03:26.966Z,-64.8
2022-09-26T02:08:35.540Z,-65.1
2022-09-26T02:13:43.136Z,-65.1
2022-09-26T02:18:51.092Z,-64.7
2022-09-26T02:23:58.295Z,-65.0
2022-09-26T02:29:07.292Z,-64.9
2022-09-26T02:34:15.051Z,-64.7
2022-09-26T02:39:23.307Z,-64.8
2022-09-26T02:44:30.316Z,-64.9
2022-09-26T02:49:36.901Z,-64.6
2022-09-26T02:54:44.917Z,-64.9
2022-09-26T02:59:52.539Z,-65.1
2022-09-26T03:05:00.381Z,-65.1
2022-09-26T03:14:40.878Z,-65.7
2022-09-26T03:19:46.074Z,-65.3
2022-09-26T03:24:53.915Z,-65.2
2022-09-26T03:30:01.913Z,-65.5
2022-09-26T03:35:10.303Z,-65.7
2022-09-26T03:40:16.851Z,-65.1
2022-09-26T03:45:24.770Z,-66.4
2022-09-26T03:50:32.285Z,-66.1
2022-09-26T03:55:45.487Z,-66.1
2022-09-26T04:00:55.937Z,-65.9
2022-09-26T04:06:03.125Z,-66.30001
2022-09-26T04:11:11.121Z,-66.1
2022-09-26T04:16:18.571Z,-66.6
2022-09-26T04:21:26.379Z,-66.5
2022-09-26T04:26:34.828Z,-65.8
2022-09-26T04:31:41.695Z,-66.2
2022-09-26T04:36:50.652Z,-65.9
2022-09-26T04:41:59.124Z,-66.6
2022-09-26T04:47:06.545Z,-66.2
2022-09-26T04:52:14.448Z,-66.0
2022-09-26T04:57:23.000Z,-66.1
2022-09-26T05:02:30.652Z,-66.5
2022-09-26T05:07:37.866Z,-66.9
2022-09-26T05:12:45.257Z,-66.1
2022-09-26T05:17:52.259Z,-66.4
2022-09-26T05:23:00.253Z,-66.0
2022-09-26T05:28:09.108Z,-66.1
2022-09-26T05:33:16.410Z,-66.1
2022-09-26T05:38:24.921Z,-66.0
2022-09-26T05:43:33.910Z,-66.30001
2022-09-26T05:48:41.878Z,-66.2
2022-09-26T05:53:49.690Z,-65.9
2022-09-26T05:58:57.931Z,-66.30001
2022-09-26T06:04:05.426Z,-66.30001
2022-09-26T06:09:12.605Z,-66.4
2022-09-26T06:14:21.079Z,-66.30001
2022-09-26T06:19:30.175Z,-66.5
2022-09-26T06:24:38.019Z,-67.0
2022-09-26T06:29:45.219Z,-66.9
2022-09-26T06:34:53.103Z,-67.2
2022-09-26T06:40:00.943Z,-66.8
2022-09-26T06:45:08.607Z,-66.7
2022-09-26T06:50:17.222Z,-66.6
2022-09-26T06:55:24.417Z,-66.7
2022-09-26T07:00:32.821Z,-65.9
2022-09-26T07:05:41.687Z,-64.3
2022-09-26T07:10:49.264Z,-64.0
2022-09-26T07:15:57.559Z,-64.6
2022-09-26T07:21:06.709Z,-64.4
2022-09-26T07:26:13.381Z,-64.6
2022-09-26T07:31:20.581Z,-64.8
2022-09-26T07:36:29.921Z,-64.9
2022-09-26T07:41:37.593Z,-64.8
2022-09-26T07:46:44.784Z,-65.2
2022-09-26T07:51:52.566Z,-64.5
2022-09-26T07:57:00.266Z,-64.8
2022-09-26T08:02:09.315Z,-64.5
2022-09-26T08:07:17.591Z,-65.3
2022-09-26T08:12:25.260Z,-64.8
2022-09-26T08:17:34.721Z,-64.6
2022-09-26T08:22:42.543Z,-65.1
2022-09-26T08:27:51.519Z,-65.2
2022-09-26T08:32:57.858Z,-64.8
2022-09-26T08:38:05.711Z,-65.5
2022-09-26T08:43:12.899Z,-65.9
2022-09-26T08:48:21.341Z,-65.3
2022-09-26T08:53:27.994Z,-66.30001
2022-09-26T08:58:35.827Z,-66.1
2022-09-26T09:03:44.016Z,-65.6
2022-09-26T09:08:50.883Z,-65.7
2022-09-26T09:14:00.038Z,-65.7
2022-09-26T09:19:08.450Z,-66.4
2022-09-26T09:24:14.976Z,-65.9
2022-09-26T09:29:21.620Z,-66.1
2022-09-26T09:34:28.732Z,-65.4
2022-09-26T09:39:36.127Z,-66.4
2022-09-26T09:44:44.092Z,-65.3
2022-09-26T09:49:52.024Z,-64.9
2022-09-26T09:55:00.060Z,-65.1
2022-09-26T10:00:06.702Z,-65.3
2022-09-26T10:05:13.899Z,-65.9
2022-09-26T10:10:21.421Z,-65.6
2022-09-26T10:15:29.735Z,-66.4
2022-09-26T10:20:37.374Z,-65.7
2022-09-26T10:25:45.311Z,-65.5
2022-09-26T10:30:53.695Z,-65.3
2022-09-26T10:36:01.041Z,-65.9
2022-09-26T10:41:08.096Z,-66.1
2022-09-26T10:46:15.824Z,-65.7
2022-09-26T10:51:22.504Z,-64.8
2022-09-26T10:56:29.840Z,-66.30001
2022-09-26T11:01:36.579Z,-65.9
2022-09-26T11:06:44.848Z,-65.8
2022-09-26T11:11:54.492Z,-66.5
2022-09-26T11:17:01.906Z,-65.6
2022-09-26T11:22:11.394Z,-65.3
2022-09-26T11:27:19.345Z,-64.8
2022-09-26T11:32:26.544Z,-65.6
2022-09-26T11:37:33.857Z,-65.7
2022-09-26T11:42:45.636Z,-65.9
2022-09-26T11:47:52.581Z,-65.7
2022-09-26T11:53:01.451Z,-66.4
2022-09-26T11:58:09.559Z,-65.6
2022-09-26T12:03:17.515Z,-65.7
2022-09-26T12:08:25.233Z,-65.9
2022-09-26T12:13:33.337Z,-65.6
2022-09-26T12:18:42.472Z,-65.1
2022-09-26T12:23:51.169Z,-64.6
2022-09-26T12:29:00.277Z,-65.5
2022-09-26T12:34:07.556Z,-65.8
2022-09-26T12:39:15.223Z,-66.4
2022-09-26T12:44:22.782Z,-65.2
2022-09-26T12:49:30.251Z,-65.2
2022-09-26T12:54:37.769Z,-65.2
2022-09-26T12:59:46.550Z,-65.3
2022-09-26T13:04:54.016Z,-65.1
2022-09-26T13:10:01.165Z,-65.2
2022-09-26T13:15:08.823Z,-64.6
2022-09-26T13:20:17.291Z,-65.1
2022-09-26T13:25:24.518Z,-65.8
2022-09-26T13:30:32.625Z,-65.0
2022-09-26T13:35:39.823Z,-64.9
2022-09-26T13:40:46.936Z,-65.2
2022-09-26T13:45:54.876Z,-64.8
2022-09-26T13:51:02.071Z,-65.9
2022-09-26T13:56:09.856Z,-65.9
2022-09-26T14:01:18.767Z,-65.3
2022-09-26T14:06:26.747Z,-65.9
2022-09-26T14:11:34.667Z,-66.1
2022-09-26T14:16:42.020Z,-65.7
2022-09-26T14:21:49.065Z,-65.4
2022-09-26T14:26:56.262Z,-65.3
2022-09-26T14:32:03.732Z,-66.1
2022-09-26T14:37:12.191Z,-65.1
2022-09-26T14:42:19.483Z,-66.0
2022-09-26T14:47:27.188Z,-65.4
2022-09-26T14:52:34.295Z,-65.8
2022-09-26T14:57:40.808Z,-65.6
2022-09-26T15:02:49.255Z,-65.8
2022-09-26T15:07:57.606Z,-65.8
2022-09-26T15:13:05.455Z,-65.9
2022-09-26T15:18:13.648Z,-65.9
2022-09-26T15:23:19.916Z,-65.5
2022-09-26T15:28:27.899Z,-65.4
2022-09-26T15:33:35.827Z,-65.8
2022-09-26T15:38:43.130Z,-66.9
2022-09-26T15:43:50.616Z,-65.6
2022-09-26T15:48:57.274Z,-66.5
2022-09-26T15:54:04.942Z,-66.2
